Time;durP1;ratioP1;P1;durP2;ratioP2;P2;SDS_P1;SDS_P2;PMS_P1;PMS_P2;Temp;Humidity;BMP_temperature;BMP_pressure;BME280_temperature;BME280_humidity;BME280_pressure;Samples;Min_cycle;Max_cycle;Signal;HPM_P1;HPM_P2
2021/10/28 00:13:17;;;;;;;;;;;11.90;70.20;;;;;;5072809;28;20055;-66
2021/10/28 00:15:53;;;;;;;23.73;15.20;;;11.90;70.60;;;;;;5071635;28;20006;-66
2021/10/28 00:18:26;;;;;;;26.77;15.40;;;11.90;70.30;;;;;;5068815;28;20033;-67
2021/10/28 00:20:54;;;;;;;27.33;15.52;;;11.90;71.20;;;;;;5070798;28;20103;-67
2021/10/28 00:23:20;;;;;;;26.02;15.32;;;11.70;70.60;;;;;;5071898;28;20025;-65
2021/10/28 00:25:45;;;;;;;29.23;16.25;;;11.80;70.80;;;;;;5072670;28;20381;-66
2021/10/28 00:28:12;;;;;;;25.02;16.67;;;11.70;70.80;;;;;;5071769;28;20028;-67
2021/10/28 00:30:37;;;;;;;27.55;16.83;;;11.70;70.80;;;;;;5072665;28;20025;-66
2021/10/28 00:33:03;;;;;;;26.85;16.17;;;11.70;71.00;;;;;;5072104;28;20155;-67
2021/10/28 00:35:29;;;;;;;26.85;16.92;;;11.70;71.00;;;;;;5072621;28;20035;-68
2021/10/28 00:37:56;;;;;;;32.90;17.40;;;11.60;71.10;;;;;;5072156;28;20047;-66
2021/10/28 00:40:21;;;;;;;26.02;17.35;;;11.60;71.20;;;;;;5071835;28;20103;-67
2021/10/28 00:42:47;;;;;;;27.25;17.67;;;11.60;71.20;;;;;;5071200;28;20115;-67
2021/10/28 00:45:13;;;;;;;26.67;18.15;;;11.50;71.30;;;;;;5072132;28;20028;-66
2021/10/28 00:47:40;;;;;;;29.63;17.60;;;11.40;71.40;;;;;;5072132;28;20033;-66
2021/10/28 00:50:07;;;;;;;32.25;18.85;;;11.40;71.50;;;;;;5069414;28;20016;-67
2021/10/28 00:52:34;;;;;;;24.40;18.40;;;11.30;71.60;;;;;;5034475;28;20071;-67
2021/10/28 00:55:01;;;;;;;28.25;17.50;;;11.30;71.80;;;;;;5051234;28;20524;-67
2021/10/28 00:57:27;;;;;;;24.50;17.20;;;11.20;71.80;;;;;;5050649;28;20033;-68
2021/10/28 00:59:53;;;;;;;27.17;18.40;;;11.20;72.00;;;;;;5051160;28;20359;-65
2021/10/28 01:02:19;;;;;;;29.35;18.13;;;11.20;72.10;;;;;;5033551;28;20032;-67
2021/10/28 01:04:45;;;;;;;24.92;17.70;;;11.10;72.00;;;;;;5051402;28;20419;-66
2021/10/28 01:07:11;;;;;;;24.15;17.52;;;11.10;72.20;;;;;;5051033;28;20071;-66
2021/10/28 01:09:37;;;;;;;29.95;18.35;;;11.10;72.40;;;;;;5051333;28;20037;-67
2021/10/28 01:12:03;;;;;;;30.65;19.02;;;11.00;72.60;;;;;;5033504;28;20029;-67
2021/10/28 01:14:40;;;;;;;23.85;17.98;;;11.00;72.70;;;;;;5051266;28;20028;-67
2021/10/28 01:17:05;;;;;;;28.85;17.92;;;11.10;72.70;;;;;;5050474;28;20048;-68
2021/10/28 01:19:31;;;;;;;30.48;17.98;;;11.00;72.90;;;;;;5050733;28;20025;-67
2021/10/28 01:21:57;;;;;;;29.13;18.23;;;11.00;73.00;;;;;;5050901;28;20063;-66
2021/10/28 01:24:23;;;;;;;25.70;18.02;;;11.00;73.10;;;;;;5032559;28;20063;-66
2021/10/28 01:26:49;;;;;;;28.77;17.98;;;10.90;73.30;;;;;;5051075;28;20028;-68
2021/10/28 01:29:15;;;;;;;24.88;18.25;;;10.90;73.60;;;;;;5050256;28;20032;-73
2021/10/28 01:31:41;;;;;;;27.95;17.83;;;10.80;73.60;;;;;;5051663;28;20029;-67
2021/10/28 01:34:07;;;;;;;23.58;17.58;;;10.80;73.60;;;;;;5050460;28;20040;-67
2021/10/28 01:36:33;;;;;;;25.58;19.48;;;10.80;73.70;;;;;;5051111;28;20029;-67
2021/10/28 01:39:12;;;;;;;31.42;19.08;;;10.80;73.80;;;;;;5033535;28;20029;-67
2021/10/28 01:41:38;;;;;;;27.98;18.98;;;10.80;74.10;;;;;;5051117;28;20474;-67
2021/10/28 01:44:04;;;;;;;28.13;19.27;;;10.70;74.10;;;;;;5033368;28;20128;-72
2021/10/28 01:46:30;;;;;;;26.23;18.75;;;10.70;74.10;;;;;;5050963;28;20028;-67
2021/10/28 01:48:56;;;;;;;24.08;18.08;;;10.70;74.10;;;;;;5033260;28;20069;-68
2021/10/28 01:51:23;;;;;;;27.08;18.17;;;10.70;74.30;;;;;;5050196;28;20473;-65
2021/10/28 01:53:49;;;;;;;28.77;20.02;;;10.60;74.30;;;;;;5051106;28;20117;-67
2021/10/28 01:56:14;;;;;;;27.88;19.00;;;10.70;74.40;;;;;;5032887;28;20338;-66
2021/10/28 01:58:40;;;;;;;25.73;18.60;;;10.60;74.50;;;;;;5032938;28;20027;-66
2021/10/28 02:01:06;;;;;;;27.13;18.90;;;10.60;74.50;;;;;;5032852;28;20028;-67
2021/10/28 02:03:32;;;;;;;29.25;19.48;;;10.70;74.50;;;;;;5051228;28;20025;-67
2021/10/28 02:05:58;;;;;;;31.65;19.70;;;10.60;74.60;;;;;;5051159;28;20029;-67
2021/10/28 02:08:25;;;;;;;32.92;22.00;;;10.60;74.50;;;;;;5050441;28;20351;-67
2021/10/28 02:10:51;;;;;;;26.10;19.20;;;10.50;74.80;;;;;;5050943;28;20463;-67
2021/10/28 02:13:17;;;;;;;27.33;20.70;;;10.50;74.80;;;;;;5050481;28;20029;-67
2021/10/28 02:15:44;;;;;;;27.10;20.13;;;10.30;74.70;;;;;;5050871;28;20076;-67
2021/10/28 02:18:10;;;;;;;25.55;19.45;;;10.40;74.70;;;;;;5033215;28;20390;-68
2021/10/28 02:20:38;;;;;;;27.83;20.02;;;10.40;74.50;;;;;;5033096;28;20087;-67
2021/10/28 02:23:05;;;;;;;32.40;20.25;;;10.40;74.50;;;;;;5051200;28;20040;-67
2021/10/28 02:25:31;;;;;;;29.60;20.40;;;10.40;74.30;;;;;;5033253;28;20393;-67
2021/10/28 02:27:57;;;;;;;31.60;19.80;;;10.40;74.20;;;;;;5051146;28;20040;-69
2021/10/28 02:30:23;;;;;;;29.17;19.75;;;10.40;74.20;;;;;;5034941;28;20029;-67
2021/10/28 02:32:50;;;;;;;28.73;19.83;;;10.40;74.30;;;;;;5036739;28;20021;-67
2021/10/28 02:35:16;;;;;;;29.73;20.17;;;10.40;74.20;;;;;;5054079;28;20053;-66
2021/10/28 02:37:43;;;;;;;27.55;20.23;;;10.40;74.20;;;;;;5054261;28;20037;-65
2021/10/28 02:40:09;;;;;;;31.92;21.60;;;10.30;74.40;;;;;;5052540;28;20025;-67
2021/10/28 02:42:35;;;;;;;30.58;19.45;;;10.30;74.50;;;;;;5054084;28;20079;-67
2021/10/28 02:45:02;;;;;;;33.17;22.50;;;10.30;74.60;;;;;;5053925;28;20049;-66
2021/10/28 02:47:28;;;;;;;32.70;20.92;;;10.30;74.50;;;;;;5053270;28;20037;-66
2021/10/28 02:49:54;;;;;;;27.23;20.13;;;10.30;74.50;;;;;;5053629;28;20377;-65
2021/10/28 02:52:19;;;;;;;31.60;21.15;;;10.30;74.50;;;;;;5053401;28;20100;-67
2021/10/28 02:54:45;;;;;;;30.50;22.05;;;10.30;74.40;;;;;;5053943;28;20025;-66
2021/10/28 02:57:11;;;;;;;32.47;22.88;;;10.30;74.30;;;;;;5053291;28;20025;-66
2021/10/28 02:59:37;;;;;;;35.25;22.40;;;10.30;74.30;;;;;;5053791;28;20032;-66
2021/10/28 03:02:04;;;;;;;35.97;24.38;;;10.30;74.30;;;;;;5054080;28;20025;-66
2021/10/28 03:04:30;;;;;;;32.20;23.83;;;10.30;74.40;;;;;;5035393;28;20393;-69
2021/10/28 03:06:56;;;;;;;34.63;25.02;;;10.30;74.30;;;;;;5053548;28;20512;-66
2021/10/28 03:09:27;;;;;;;31.30;23.90;;;10.30;74.10;;;;;;5053085;28;20017;-67
2021/10/28 03:11:57;;;;;;;37.30;26.00;;;10.30;74.10;;;;;;5035651;28;20388;-66
2021/10/28 03:27:36;;;;;;;43.17;28.65;;;10.30;73.90;;;;;;5053516;28;20040;-66
2021/10/28 03:30:02;;;;;;;39.63;28.83;;;10.30;73.90;;;;;;5053116;28;20381;-65
2021/10/28 03:32:29;;;;;;;48.97;33.65;;;10.30;74.00;;;;;;5052466;28;20029;-67
2021/10/28 03:34:55;;;;;;;45.60;32.58;;;10.20;74.00;;;;;;5035419;28;20079;-67
2021/10/28 03:37:45;;;;;;;50.47;35.83;;;10.20;74.10;;;;;;5052606;28;20025;-67
2021/10/28 03:40:34;;;;;;;49.30;34.90;;;10.20;74.30;;;;;;5051271;28;20033;-68
2021/10/28 03:43:33;;;;;;;49.42;36.00;;;10.00;74.50;;;;;;5052698;28;20028;-68
2021/10/28 03:46:42;;;;;;;43.92;35.75;;;10.00;74.70;;;;;;5052860;28;20493;-65
2021/10/28 03:57:51;;;;;;;54.25;39.88;;;9.90;75.30;;;;;;5017157;28;20026;-66
2021/10/28 04:29:30;;;;;;;63.90;44.28;;;9.40;77.20;;;;;;5071346;28;20043;-67
2021/10/28 04:31:56;;;;;;;61.53;43.95;;;9.30;77.30;;;;;;5071950;28;20210;-67
2021/10/28 04:34:22;;;;;;;62.17;43.55;;;9.30;77.40;;;;;;5071430;28;20029;-66
2021/10/28 04:36:48;;;;;;;60.28;43.35;;;9.30;77.40;;;;;;5071845;28;20112;-66
2021/10/28 04:39:13;;;;;;;62.60;44.17;;;9.30;77.30;;;;;;5070093;28;20029;-66
2021/10/28 04:41:39;;;;;;;57.88;42.90;;;9.30;77.20;;;;;;5071901;28;20028;-67
2021/10/28 04:44:09;;;;;;;63.08;44.75;;;9.40;77.00;;;;;;5071829;28;20027;-66
2021/10/28 04:46:35;;;;;;;57.10;43.47;;;9.40;76.80;;;;;;5071726;28;20119;-66
2021/10/28 04:49:00;;;;;;;58.50;41.60;;;9.40;76.80;;;;;;5071438;28;20036;-67
2021/10/28 04:51:26;;;;;;;56.38;41.25;;;9.40;76.70;;;;;;5057828;28;20291;-67
2021/10/28 04:53:52;;;;;;;58.13;42.45;;;9.40;76.70;;;;;;5051156;28;20485;-67
2021/10/28 04:56:18;;;;;;;59.40;42.38;;;9.40;76.80;;;;;;5051050;28;20502;-69
2021/10/28 04:58:43;;;;;;;70.50;44.25;;;9.40;76.70;;;;;;5033282;28;20499;-69
2021/10/28 05:01:09;;;;;;;60.92;42.67;;;9.40;76.80;;;;;;5050751;28;20029;-67
2021/10/28 05:03:35;;;;;;;59.22;44.80;;;9.30;76.80;;;;;;5051503;28;20029;-66
2021/10/28 05:06:02;;;;;;;62.42;44.83;;;9.20;77.10;;;;;;5051158;28;20043;-65
2021/10/28 05:08:28;;;;;;;59.50;44.13;;;9.10;77.30;;;;;;5032898;28;20128;-65
2021/10/28 05:10:54;;;;;;;62.15;44.67;;;9.10;77.50;;;;;;5051022;28;20068;-67
2021/10/28 05:13:20;;;;;;;60.55;46.05;;;9.10;77.60;;;;;;5051017;28;20375;-67
2021/10/28 05:15:50;;;;;;;62.85;43.78;;;9.10;77.70;;;;;;5050869;28;20025;-67
2021/10/28 05:18:17;;;;;;;63.58;45.92;;;9.10;77.60;;;;;;5050868;28;20036;-68
2021/10/28 05:20:44;;;;;;;60.90;43.97;;;9.10;77.50;;;;;;5033394;28;20108;-66
2021/10/28 05:23:11;;;;;;;62.15;46.00;;;9.10;77.30;;;;;;5032430;28;20035;-66
2021/10/28 05:25:38;;;;;;;64.50;45.88;;;9.00;77.30;;;;;;5051312;28;20041;-68
2021/10/28 05:28:04;;;;;;;65.43;46.05;;;9.00;77.60;;;;;;5050847;28;20037;-67
2021/10/28 05:30:30;;;;;;;67.18;48.55;;;8.90;77.60;;;;;;5032607;28;20462;-66
2021/10/28 05:32:56;;;;;;;68.50;49.17;;;8.90;77.80;;;;;;5050913;28;20025;-66
2021/10/28 05:35:22;;;;;;;74.20;50.08;;;9.00;77.80;;;;;;5050233;28;20052;-67
2021/10/28 05:37:48;;;;;;;73.25;51.30;;;9.00;77.60;;;;;;5033134;28;20071;-66
2021/10/28 05:40:14;;;;;;;69.85;46.72;;;9.10;77.50;;;;;;5050124;28;20018;-66
2021/10/28 05:42:42;;;;;;;74.75;47.65;;;9.10;77.00;;;;;;5051021;28;20442;-67
2021/10/28 05:45:11;;;;;;;64.43;48.65;;;9.10;77.20;;;;;;5032667;28;20025;-71
2021/10/28 05:47:37;;;;;;;70.68;47.17;;;9.30;77.00;;;;;;5050751;28;20518;-65
2021/10/28 05:50:07;;;;;;;60.63;43.88;;;9.30;76.30;;;;;;5050882;28;20104;-66
2021/10/28 05:52:34;;;;;;;56.40;42.25;;;9.40;76.10;;;;;;5050791;28;20450;-66
2021/10/28 05:57:44;;;;;;;61.42;41.28;;;9.50;75.50;;;;;;5050820;28;20047;-65
2021/10/28 06:00:11;;;;;;;59.10;40.15;;;9.50;75.30;;;;;;5049908;28;20021;-67
2021/10/28 06:02:38;;;;;;;60.47;40.38;;;9.50;75.20;;;;;;5050685;28;20033;-68
2021/10/28 06:05:05;;;;;;;87.55;42.40;;;9.40;75.10;;;;;;5052622;28;20482;-67
2021/10/28 06:07:32;;;;;;;75.05;44.33;;;9.40;75.20;;;;;;5053915;28;20037;-66
2021/10/28 06:09:57;;;;;;;103.05;44.50;;;9.40;75.30;;;;;;5054874;28;20037;-67
2021/10/28 06:12:25;;;;;;;144.27;46.58;;;9.40;75.60;;;;;;5054139;28;20028;-66
2021/10/28 06:14:51;;;;;;;71.53;46.22;;;9.30;75.80;;;;;;5054431;28;20025;-67
2021/10/28 06:17:18;;;;;;;123.55;48.92;;;9.20;76.20;;;;;;5053795;28;20035;-66
2021/10/28 06:19:44;;;;;;;66.10;45.70;;;9.10;76.60;;;;;;5053346;28;20102;-67
2021/10/28 06:22:10;;;;;;;70.38;46.22;;;9.00;77.00;;;;;;5053683;28;20357;-67
2021/10/28 06:24:36;;;;;;;165.40;47.20;;;9.00;77.20;;;;;;5054220;28;20393;-67
2021/10/28 06:27:03;;;;;;;114.50;45.13;;;9.00;77.30;;;;;;5053849;28;20024;-67
2021/10/28 06:29:29;;;;;;;77.93;48.17;;;8.80;77.80;;;;;;5053202;28;20064;-68
2021/10/28 06:31:56;;;;;;;104.82;47.45;;;8.70;78.20;;;;;;5053656;28;20060;-67
2021/10/28 06:34:22;;;;;;;76.80;48.53;;;8.70;78.90;;;;;;5053132;28;20021;-68
2021/10/28 06:36:49;;;;;;;68.18;45.13;;;8.70;79.20;;;;;;5035664;28;20029;-65
2021/10/28 06:39:17;;;;;;;56.85;42.38;;;8.80;79.00;;;;;;5052845;28;20039;-66
2021/10/28 06:41:43;;;;;;;70.45;43.75;;;8.90;78.80;;;;;;5053102;28;20100;-62
2021/10/28 06:44:09;;;;;;;69.15;42.97;;;8.90;78.60;;;;;;5035631;28;20102;-72
2021/10/28 06:46:35;;;;;;;67.00;43.20;;;9.00;78.50;;;;;;5053052;28;20070;-64
2021/10/28 06:49:04;;;;;;;64.22;45.78;;;9.00;78.20;;;;;;5053464;28;20678;-62
2021/10/28 06:51:32;;;;;;;63.10;44.10;;;9.10;78.20;;;;;;5052958;28;20431;-64
2021/10/28 06:54:10;;;;;;;57.80;42.25;;;9.10;78.20;;;;;;5053442;28;20036;-63
2021/10/28 07:04:47;;;;;;;64.60;42.80;;;9.30;78.20;;;;;;5053491;28;20025;-57
2021/10/28 07:07:17;;;;;;;57.40;42.22;;;9.40;77.60;;;;;;5052609;28;20028;-59
2021/10/28 07:09:48;;;;;;;61.30;40.75;;;9.30;77.40;;;;;;5053046;28;20021;-59
2021/10/28 07:14:46;;;;;;;58.85;42.28;;;9.30;77.80;;;;;;5052863;28;20086;-58
2021/10/28 07:57:43;;;;;;;50.28;38.67;;;10.50;75.10;;;;;;5051216;28;20253;-69
2021/10/28 08:19:29;;;;;;;47.22;35.00;;;12.40;69.40;;;;;;5051807;28;20378;-72
2021/10/28 08:22:04;;;;;;;47.22;34.72;;;12.40;69.00;;;;;;5052101;28;20053;-71
2021/10/28 08:30:20;;;;;;;46.28;33.72;;;12.10;69.70;;;;;;5050654;28;20396;-65
2021/10/28 08:32:46;;;;;;;47.70;32.80;;;12.10;70.40;;;;;;5051195;28;20418;-67
2021/10/28 08:35:13;;;;;;;47.10;34.75;;;12.00;70.20;;;;;;5030015;28;20025;-65
2021/10/28 08:37:46;;;;;;;43.85;33.72;;;12.00;70.40;;;;;;5050190;28;20442;-64
2021/10/28 08:40:15;;;;;;;42.97;34.15;;;12.00;70.50;;;;;;5049428;28;20124;-69
2021/10/28 08:42:42;;;;;;;43.35;32.95;;;12.00;70.50;;;;;;5050325;28;20020;-69
2021/10/28 08:45:12;;;;;;;42.33;31.20;;;12.00;70.80;;;;;;5050326;28;20024;-70
2021/10/28 08:47:45;;;;;;;41.17;30.77;;;12.00;70.90;;;;;;5031945;28;20087;-71
2021/10/28 08:50:22;;;;;;;42.10;30.08;;;12.00;70.90;;;;;;5048272;28;20178;-68
2021/10/28 08:53:43;;;;;;;42.15;29.95;;;12.00;70.90;;;;;;5031696;28;20516;-70
2021/10/28 08:55:36;;;;;;;41.90;30.00;;;12.00;70.80;;;;;;5020184;28;20037;-69
2021/10/28 09:28:16;;;;;;;35.75;25.80;;;12.60;68.30;;;;;;5047444;28;20369;-61
2021/10/28 09:33:37;;;;;;;37.83;25.02;;;12.90;67.60;;;;;;5047467;28;20035;-65
2021/10/28 09:47:44;;;;;;;35.92;24.92;;;13.20;66.90;;;;;;5049888;28;20108;-65
2021/10/28 09:50:25;;;;;;;33.88;25.48;;;13.40;66.60;;;;;;5049817;28;20025;-66
2021/10/28 09:53:11;;;;;;;35.72;25.55;;;13.60;66.30;;;;;;5053766;28;20028;-65
2021/10/28 09:58:27;;;;;;;31.52;24.60;;;13.80;64.70;;;;;;5055251;28;20032;-65
2021/10/28 10:00:54;;;;;;;33.60;25.27;;;13.90;64.40;;;;;;5036841;28;20033;-67
2021/10/28 10:03:26;;;;;;;30.75;23.42;;;14.00;64.60;;;;;;5054261;28;20033;-65
2021/10/28 10:06:01;;;;;;;34.90;24.85;;;14.10;64.20;;;;;;5054615;28;20462;-66
2021/10/28 10:08:29;;;;;;;31.05;24.15;;;14.30;63.90;;;;;;5054574;28;20033;-65
2021/10/28 10:10:56;;;;;;;31.35;24.23;;;14.50;63.20;;;;;;5054669;28;20057;-63
2021/10/28 10:13:25;;;;;;;31.85;23.33;;;14.60;63.00;;;;;;5050325;28;20021;-67
2021/10/28 10:15:58;;;;;;;36.17;22.52;;;14.80;62.60;;;;;;5035484;28;20021;-65
2021/10/28 10:18:33;;;;;;;26.97;19.53;;;14.90;61.30;;;;;;5053650;28;20021;-64
2021/10/28 10:21:19;;;;;;;31.70;19.70;;;14.90;60.20;;;;;;5053352;28;20346;-63
2021/10/28 10:24:40;;;;;;;28.25;18.83;;;14.80;59.60;;;;;;5053388;28;20323;-69
2021/10/28 11:28:13;;;;;;;24.80;16.35;;;15.70;54.30;;;;;;5072158;28;20062;-68
2021/10/28 12:21:06;;;;;;;25.95;14.48;;;16.80;48.50;;;;;;5047196;28;20020;-69
2021/10/28 12:43:28;;;;;;;20.33;14.07;;;16.10;49.10;;;;;;5046791;28;20477;-69
2021/10/28 12:45:47;;;;;;;23.52;13.63;;;16.40;48.10;;;;;;5047593;28;20056;-70
2021/10/28 12:57:01;;;;;;;31.23;14.35;;;16.00;48.00;;;;;;5047041;28;20028;-67
2021/10/28 15:28:41;;;;;;;26.95;21.05;;;14.60;53.20;;;;;;4985544;28;20285;-68
2021/10/28 15:36:22;;;;;;;28.70;19.45;;;14.40;53.20;;;;;;5049024;28;20037;-69
2021/10/28 15:59:56;;;;;;;28.63;20.45;;;13.90;54.50;;;;;;5034757;28;20552;-66
2021/10/28 16:22:01;;;;;;;30.98;22.65;;;13.70;55.70;;;;;;5041555;28;20079;-66
2021/10/28 16:24:30;;;;;;;32.17;21.52;;;13.60;56.00;;;;;;5031180;28;20029;-67
2021/10/28 16:26:57;;;;;;;33.10;22.58;;;13.70;55.90;;;;;;5031672;28;20037;-67
2021/10/28 16:29:24;;;;;;;30.60;22.48;;;13.70;56.00;;;;;;5031050;28;20086;-67
2021/10/28 16:31:50;;;;;;;28.80;20.75;;;13.60;56.10;;;;;;5031031;28;20119;-67
2021/10/28 16:34:18;;;;;;;29.65;22.58;;;13.60;56.10;;;;;;5049438;28;20031;-68
2021/10/28 16:36:45;;;;;;;32.60;23.83;;;13.50;56.50;;;;;;5049195;28;20029;-69
2021/10/28 16:39:12;;;;;;;31.52;23.92;;;13.50;56.60;;;;;;5030777;28;20040;-68
2021/10/28 16:41:44;;;;;;;31.00;23.08;;;13.50;56.60;;;;;;5031368;28;20029;-68
2021/10/28 16:44:11;;;;;;;32.53;23.13;;;13.50;56.80;;;;;;5049329;28;20036;-69
2021/10/28 16:46:38;;;;;;;31.92;24.40;;;13.50;56.70;;;;;;5049433;28;20072;-65
2021/10/28 16:49:25;;;;;;;34.13;24.30;;;13.50;56.80;;;;;;5031221;28;20032;-68
2021/10/28 16:51:50;;;;;;;31.92;23.20;;;13.50;56.90;;;;;;5049337;28;20049;-68
2021/10/28 16:54:18;;;;;;;33.50;23.50;;;13.50;57.00;;;;;;5015069;28;20071;-68
2021/10/28 16:56:46;;;;;;;30.88;23.95;;;13.40;57.00;;;;;;5049182;28;20032;-66
2021/10/28 16:59:11;;;;;;;33.10;24.48;;;13.30;57.10;;;;;;5030806;28;20029;-67
2021/10/28 17:01:38;;;;;;;33.08;23.38;;;13.30;57.10;;;;;;5030195;28;20076;-69
2021/10/28 17:04:04;;;;;;;28.38;23.25;;;13.30;57.30;;;;;;5031595;28;20025;-69
2021/10/28 17:06:30;;;;;;;31.63;23.30;;;13.30;57.10;;;;;;5049033;28;20394;-68
2021/10/28 17:08:57;;;;;;;32.97;23.67;;;13.20;57.10;;;;;;5049629;28;20041;-69
2021/10/28 17:11:26;;;;;;;31.13;23.70;;;13.20;57.20;;;;;;5049090;28;20072;-68
2021/10/28 17:13:52;;;;;;;34.22;24.05;;;13.20;57.30;;;;;;5030867;28;20056;-69
2021/10/28 17:16:18;;;;;;;29.75;24.55;;;13.10;57.20;;;;;;5031413;28;20044;-69
2021/10/28 17:18:44;;;;;;;33.30;24.52;;;13.20;57.30;;;;;;5049159;28;20065;-69
2021/10/28 17:21:10;;;;;;;35.70;23.42;;;13.10;57.40;;;;;;5048954;28;20478;-69
2021/10/28 17:23:40;;;;;;;29.88;23.00;;;13.00;57.90;;;;;;5031537;28;20021;-67
2021/10/28 17:26:06;;;;;;;33.55;25.85;;;13.00;57.80;;;;;;5031540;28;20363;-68
2021/10/28 17:28:34;;;;;;;34.20;26.02;;;13.00;57.90;;;;;;5031199;28;20474;-69
2021/10/28 17:31:01;;;;;;;32.83;25.05;;;13.00;57.90;;;;;;5049443;28;20029;-70
2021/10/28 17:33:27;;;;;;;35.85;25.65;;;12.90;58.10;;;;;;5030525;28;20041;-69
2021/10/28 17:35:55;;;;;;;37.33;27.65;;;12.90;59.30;;;;;;5048710;28;20127;-68
2021/10/28 17:38:22;;;;;;;36.97;27.52;;;12.80;58.80;;;;;;5031177;28;20039;-69
2021/10/28 17:40:48;;;;;;;42.05;29.35;;;12.80;59.00;;;;;;5049921;28;20036;-72
2021/10/28 17:43:16;;;;;;;37.70;28.40;;;12.80;59.30;;;;;;5032579;28;20021;-69
2021/10/28 17:45:42;;;;;;;39.78;29.17;;;12.80;59.30;;;;;;5050591;28;20021;-68
2021/10/28 17:48:09;;;;;;;40.42;29.70;;;12.80;59.40;;;;;;5032268;28;20037;-70
2021/10/28 17:50:36;;;;;;;39.60;29.25;;;12.70;60.50;;;;;;5049838;28;20139;-70
2021/10/28 17:53:03;;;;;;;41.22;31.48;;;12.70;60.20;;;;;;5050832;28;20124;-69
2021/10/28 17:55:29;;;;;;;36.60;30.52;;;12.70;60.20;;;;;;5032811;28;20052;-70
2021/10/28 17:57:54;;;;;;;44.65;29.75;;;12.70;60.40;;;;;;5050353;28;20470;-70
2021/10/28 18:00:21;;;;;;;40.45;31.17;;;12.70;60.50;;;;;;5033702;28;20063;-69
2021/10/28 18:02:47;;;;;;;41.55;31.83;;;12.60;60.70;;;;;;5053716;28;20028;-69
2021/10/28 18:05:13;;;;;;;45.30;30.45;;;12.60;60.90;;;;;;5036345;28;20108;-69
2021/10/28 18:07:39;;;;;;;41.25;31.98;;;12.60;61.00;;;;;;5054269;28;20493;-69
2021/10/28 18:10:06;;;;;;;41.20;31.05;;;12.50;61.30;;;;;;5036610;28;20029;-69
2021/10/28 18:15:17;;;;;;;40.20;31.05;;;12.50;61.40;;;;;;5054588;28;20453;-65
2021/10/28 18:17:43;;;;;;;42.90;30.73;;;12.60;61.40;;;;;;5053755;28;20021;-65
2021/10/28 18:20:09;;;;;;;42.35;32.17;;;12.50;61.50;;;;;;5036466;28;20032;-64
2021/10/28 18:22:40;;;;;;;44.03;31.95;;;12.50;61.70;;;;;;5035764;28;20120;-64
2021/10/28 18:25:09;;;;;;;40.72;32.30;;;12.40;61.60;;;;;;5054654;28;20025;-70
2021/10/28 18:27:36;;;;;;;41.65;31.60;;;12.50;61.60;;;;;;5054093;28;20025;-68
2021/10/28 18:30:05;;;;;;;42.88;31.88;;;12.50;61.90;;;;;;5054229;28;20028;-67
2021/10/28 18:32:31;;;;;;;45.85;32.58;;;12.50;62.10;;;;;;5036114;28;20021;-66
2021/10/28 18:34:57;;;;;;;42.00;32.30;;;12.50;61.80;;;;;;5053689;28;20025;-65
2021/10/28 18:37:23;;;;;;;39.30;31.92;;;12.40;61.80;;;;;;5053967;28;20025;-66
2021/10/28 18:39:51;;;;;;;39.15;31.00;;;12.40;62.00;;;;;;5053928;28;20024;-68
2021/10/28 18:42:18;;;;;;;42.97;31.58;;;12.30;61.90;;;;;;5053715;28;20021;-66
2021/10/28 18:44:44;;;;;;;45.15;31.85;;;12.30;61.90;;;;;;5053628;28;20143;-66
2021/10/28 18:47:09;;;;;;;41.70;32.45;;;12.30;62.00;;;;;;5036505;28;20025;-68
2021/10/28 18:49:35;;;;;;;39.97;31.65;;;12.30;61.70;;;;;;5035727;28;20090;-67
2021/10/28 18:52:02;;;;;;;39.28;31.17;;;12.30;61.80;;;;;;5067944;28;20052;-67
2021/10/28 18:54:29;;;;;;;38.15;29.83;;;12.30;61.70;;;;;;5073479;28;20117;-68
2021/10/28 18:56:55;;;;;;;40.45;31.08;;;12.20;61.40;;;;;;5072028;28;20025;-68
2021/10/28 18:59:20;;;;;;;38.13;30.67;;;12.20;61.40;;;;;;5072233;28;20123;-68
2021/10/28 19:01:51;;;;;;;41.00;30.05;;;12.20;61.40;;;;;;5073626;28;20115;-67
2021/10/28 19:04:18;;;;;;;38.92;31.02;;;12.20;61.20;;;;;;5073863;28;20098;-69
2021/10/28 19:06:44;;;;;;;44.53;31.75;;;12.20;61.20;;;;;;5073462;28;20103;-68
2021/10/28 19:09:12;;;;;;;37.78;30.27;;;12.20;61.60;;;;;;5072693;28;20040;-67
2021/10/28 19:11:37;;;;;;;39.50;30.95;;;12.20;61.20;;;;;;5072965;28;20033;-68
2021/10/28 19:14:03;;;;;;;37.78;30.80;;;12.20;61.20;;;;;;5072710;28;20108;-68
2021/10/28 19:16:29;;;;;;;45.92;31.45;;;12.10;61.20;;;;;;5073772;28;20449;-70
2021/10/28 19:18:55;;;;;;;42.00;32.05;;;12.10;61.40;;;;;;5073510;28;20060;-70
2021/10/28 19:21:21;;;;;;;41.65;30.40;;;12.20;61.40;;;;;;5073736;28;20025;-69
2021/10/28 19:23:46;;;;;;;37.70;30.60;;;12.10;61.50;;;;;;5071774;28;20519;-70
2021/10/28 19:26:12;;;;;;;39.55;31.35;;;12.10;61.40;;;;;;5073724;28;20028;-67
2021/10/28 19:28:42;;;;;;;43.75;31.42;;;12.10;61.70;;;;;;5071457;28;20473;-69
2021/10/28 19:31:17;;;;;;;41.50;31.73;;;12.10;61.90;;;;;;5073470;28;20043;-68
2021/10/28 19:33:47;;;;;;;43.22;31.85;;;12.10;61.80;;;;;;5071591;28;20488;-67
2021/10/28 19:39:27;;;;;;;41.92;33.47;;;12.00;61.90;;;;;;5031008;28;20030;-67
2021/10/28 19:42:05;;;;;;;43.30;31.25;;;12.00;62.10;;;;;;5068017;28;20068;-68
2021/10/28 19:47:15;;;;;;;47.40;32.83;;;12.00;62.10;;;;;;5073172;28;20079;-68
2021/10/28 19:49:43;;;;;;;43.28;31.48;;;12.00;62.30;;;;;;5072321;28;20482;-67
2021/10/28 19:52:11;;;;;;;39.65;32.38;;;12.00;62.10;;;;;;5071422;28;20470;-67
2021/10/28 19:54:38;;;;;;;44.17;33.70;;;12.00;62.20;;;;;;5073077;28;20060;-67
2021/10/28 19:57:06;;;;;;;44.15;32.65;;;12.00;62.10;;;;;;5071844;28;20074;-67
2021/10/28 19:59:36;;;;;;;41.88;33.75;;;12.00;62.20;;;;;;5072707;28;20081;-67
2021/10/28 20:02:09;;;;;;;42.75;32.28;;;12.00;61.80;;;;;;5072556;28;20017;-67
2021/10/28 20:05:06;;;;;;;38.05;31.40;;;12.00;62.20;;;;;;5071599;28;20035;-68
2021/10/28 20:07:59;;;;;;;44.30;32.58;;;12.00;61.90;;;;;;5072703;28;20462;-66
2021/10/28 20:13:49;;;;;;;45.55;32.65;;;12.00;61.90;;;;;;5072756;28;20112;-68
2021/10/28 20:21:46;;;;;;;40.70;32.58;;;11.90;62.10;;;;;;5030090;28;20096;-67
2021/10/28 20:24:13;;;;;;;38.15;29.60;;;11.90;62.20;;;;;;5029945;28;20038;-68
2021/10/28 20:26:39;;;;;;;41.17;31.30;;;11.90;62.20;;;;;;5013853;28;20148;-67
2021/10/28 20:29:08;;;;;;;41.03;31.13;;;11.90;62.20;;;;;;5029370;28;20045;-68
2021/10/28 20:31:34;;;;;;;42.00;30.33;;;11.90;62.20;;;;;;5013921;28;20060;-68
2021/10/28 20:39:32;;;;;;;37.97;30.65;;;11.80;62.30;;;;;;5027604;28;20036;-68
2021/10/28 20:41:58;;;;;;;39.10;30.35;;;11.80;62.40;;;;;;5029582;28;20084;-67
2021/10/28 20:44:25;;;;;;;43.35;30.45;;;11.80;62.40;;;;;;5029675;28;20108;-67
2021/10/28 20:46:51;;;;;;;41.10;30.55;;;11.70;62.50;;;;;;5028907;28;20040;-68
2021/10/28 20:49:17;;;;;;;38.40;29.33;;;11.70;62.50;;;;;;5029363;28;20457;-67
2021/10/28 20:51:44;;;;;;;41.83;31.63;;;11.70;62.50;;;;;;5029351;28;20172;-67
2021/10/28 20:54:10;;;;;;;38.30;30.60;;;11.70;62.50;;;;;;5042934;28;20054;-68
2021/10/28 20:56:37;;;;;;;42.42;31.30;;;11.70;62.30;;;;;;5071808;28;20107;-68
2021/10/28 20:59:03;;;;;;;38.08;30.92;;;11.70;62.30;;;;;;5071508;28;20017;-68
2021/10/28 21:01:29;;;;;;;41.72;30.88;;;11.70;62.10;;;;;;5072091;28;20406;-68
2021/10/28 21:03:55;;;;;;;39.72;30.65;;;11.70;62.00;;;;;;5070895;28;20142;-66
2021/10/28 21:06:25;;;;;;;37.78;29.27;;;11.70;62.20;;;;;;5071918;28;20020;-69
2021/10/28 21:08:57;;;;;;;40.85;29.40;;;11.70;62.10;;;;;;5071251;28;20486;-68
2021/10/28 21:11:36;;;;;;;41.67;32.22;;;11.70;62.00;;;;;;5070702;28;20031;-68
2021/10/28 21:14:07;;;;;;;39.45;31.38;;;11.70;62.10;;;;;;5069940;28;20373;-68
2021/10/28 21:16:41;;;;;;;36.78;31.15;;;11.70;62.40;;;;;;5070747;28;20027;-69
2021/10/28 21:19:15;;;;;;;40.58;30.33;;;11.70;62.40;;;;;;5070355;28;20226;-67
2021/10/28 21:21:44;;;;;;;40.05;32.70;;;11.70;62.60;;;;;;5071931;28;20062;-69
2021/10/28 21:24:11;;;;;;;38.08;30.95;;;11.70;62.60;;;;;;5070057;28;20112;-68
2021/10/28 21:26:38;;;;;;;45.00;32.20;;;11.70;62.90;;;;;;5070494;28;20476;-69
2021/10/28 21:29:06;;;;;;;41.63;33.28;;;11.70;63.20;;;;;;5071344;28;20461;-69
2021/10/28 21:31:37;;;;;;;41.03;32.15;;;11.60;63.30;;;;;;5070573;28;20029;-69
2021/10/28 21:34:04;;;;;;;40.25;32.90;;;11.60;63.60;;;;;;5070653;28;20024;-68
2021/10/28 21:36:34;;;;;;;42.90;31.55;;;11.60;63.80;;;;;;5070862;28;20020;-68
2021/10/28 21:39:06;;;;;;;40.80;33.28;;;11.60;64.00;;;;;;5070036;28;20020;-68
2021/10/28 21:41:41;;;;;;;42.08;33.47;;;11.60;64.20;;;;;;5070441;28;20024;-69